Time;durP1;ratioP1;P1;durP2;ratioP2;P2;SDS_P1;SDS_P2;PMS_P1;PMS_P2;Temp;Humidity;BMP_temperature;BMP_pressure;BME280_temperature;BME280_humidity;BME280_pressure;Samples;Min_cycle;Max_cycle;Signal;HPM_P1;HPM_P2
2021/12/09 00:00:19;;;;;;;8.55;4.43;;;3.40;99.90;;;;;;5137613;27;20053;-75
2021/12/09 00:02:45;;;;;;;5.63;3.88;;;3.30;99.90;;;;;;5137630;27;20087;-75
2021/12/09 00:05:14;;;;;;;9.73;5.10;;;3.30;99.90;;;;;;5134615;27;20038;-75
2021/12/09 00:07:44;;;;;;;9.07;4.05;;;3.30;99.90;;;;;;5118869;27;20700;-75
2021/12/09 00:10:12;;;;;;;6.70;4.35;;;3.30;99.90;;;;;;5139527;27;20069;-75
2021/12/09 00:12:38;;;;;;;7.95;4.32;;;3.30;99.90;;;;;;5137815;27;20057;-75
2021/12/09 00:15:05;;;;;;;8.88;4.45;;;3.30;99.90;;;;;;5137011;27;20079;-75
2021/12/09 00:17:31;;;;;;;9.77;4.80;;;3.30;99.90;;;;;;5136761;27;20081;-75
2021/12/09 00:19:57;;;;;;;7.10;5.20;;;3.30;99.90;;;;;;5137613;27;20051;-75
2021/12/09 00:22:22;;;;;;;8.65;4.80;;;3.20;99.90;;;;;;5137216;27;20051;-75
2021/12/09 00:24:48;;;;;;;6.60;5.13;;;3.20;99.90;;;;;;5122159;27;20038;-76
2021/12/09 00:27:14;;;;;;;9.13;4.72;;;3.20;99.90;;;;;;5137595;27;20042;-75
2021/12/09 00:29:39;;;;;;;6.13;4.10;;;3.20;99.90;;;;;;5119173;27;20046;-75
2021/12/09 00:32:06;;;;;;;8.20;4.90;;;3.20;99.90;;;;;;5137532;27;20039;-76
2021/12/09 00:34:34;;;;;;;5.03;3.63;;;3.20;99.90;;;;;;5118572;27;20550;-75
2021/12/09 00:37:15;;;;;;;7.25;4.40;;;3.10;99.90;;;;;;5137417;27;20047;-75
2021/12/09 00:39:43;;;;;;;5.95;4.18;;;3.10;99.90;;;;;;5136209;27;20118;-76
2021/12/09 00:42:10;;;;;;;4.72;4.25;;;3.00;99.90;;;;;;5119290;27;20046;-75
2021/12/09 00:44:36;;;;;;;8.15;4.63;;;3.00;99.90;;;;;;5133419;27;20049;-76
2021/12/09 00:47:02;;;;;;;11.23;5.38;;;2.90;99.90;;;;;;5136883;27;20888;-75
2021/12/09 00:49:30;;;;;;;7.70;4.65;;;2.90;99.90;;;;;;5141269;27;20039;-75
2021/12/09 00:52:00;;;;;;;8.15;4.72;;;2.90;99.90;;;;;;5137079;27;20073;-76
2021/12/09 00:54:26;;;;;;;7.45;5.50;;;2.90;99.90;;;;;;5117379;27;20058;-75
2021/12/09 00:56:52;;;;;;;6.93;4.25;;;2.90;99.90;;;;;;5137175;27;20051;-75
2021/12/09 00:59:18;;;;;;;7.03;5.57;;;2.90;99.90;;;;;;5133609;27;20534;-75
2021/12/09 01:01:43;;;;;;;9.23;4.80;;;2.90;99.90;;;;;;5121697;27;20055;-76
2021/12/09 01:04:09;;;;;;;7.28;4.45;;;3.00;99.90;;;;;;5117685;27;20131;-75
2021/12/09 01:06:35;;;;;;;9.73;5.65;;;2.70;99.90;;;;;;5154590;27;20062;-75
2021/12/09 01:09:02;;;;;;;10.50;5.18;;;3.00;99.90;;;;;;5149216;27;20669;-75
2021/12/09 01:11:29;;;;;;;6.85;4.82;;;2.90;99.90;;;;;;5142167;27;20125;-75
2021/12/09 01:13:54;;;;;;;14.45;5.40;;;2.90;99.90;;;;;;5151783;27;20046;-75
2021/12/09 01:16:20;;;;;;;8.90;4.25;;;2.90;99.90;;;;;;5141534;27;20049;-75
2021/12/09 01:18:45;;;;;;;5.82;5.15;;;2.80;99.90;;;;;;5121801;27;20096;-75
2021/12/09 01:21:11;;;;;;;7.72;4.32;;;2.80;99.90;;;;;;5142828;27;20046;-76
2021/12/09 01:23:38;;;;;;;9.30;5.53;;;2.70;99.90;;;;;;5148714;27;20035;-75
2021/12/09 01:26:06;;;;;;;9.05;6.50;;;2.60;99.90;;;;;;5141552;27;20099;-74
2021/12/09 01:28:41;;;;;;;6.35;4.82;;;2.60;99.90;;;;;;5141560;27;20042;-75
2021/12/09 01:31:07;;;;;;;10.35;5.05;;;2.60;99.90;;;;;;5139128;27;20065;-75
2021/12/09 01:33:34;;;;;;;7.95;6.05;;;2.60;99.90;;;;;;5121985;27;20055;-75
2021/12/09 01:36:00;;;;;;;8.65;5.63;;;2.60;99.90;;;;;;5141347;27;20179;-75
2021/12/09 01:38:30;;;;;;;8.32;6.22;;;2.60;99.90;;;;;;5125674;27;20157;-74
2021/12/09 01:40:56;;;;;;;8.05;5.47;;;2.60;99.90;;;;;;5129657;27;20141;-75
2021/12/09 01:43:23;;;;;;;10.98;5.95;;;2.70;99.90;;;;;;5138937;27;20054;-75
2021/12/09 01:46:00;;;;;;;13.48;5.75;;;2.70;99.90;;;;;;5141961;27;20083;-74
2021/12/09 01:48:25;;;;;;;7.78;5.57;;;2.70;99.90;;;;;;5134674;27;20075;-75
2021/12/09 01:50:51;;;;;;;8.48;5.68;;;2.70;99.90;;;;;;5139974;27;20365;-74
2021/12/09 01:53:16;;;;;;;8.30;5.32;;;2.70;99.90;;;;;;5138642;27;20115;-76
2021/12/09 01:55:42;;;;;;;8.10;5.95;;;2.70;99.90;;;;;;5140574;27;20106;-75
2021/12/09 01:58:08;;;;;;;8.07;4.65;;;2.70;99.90;;;;;;5134211;27;20047;-75
2021/12/09 02:00:37;;;;;;;7.25;5.47;;;2.70;99.90;;;;;;5137792;27;20050;-74
2021/12/09 02:03:04;;;;;;;8.57;5.35;;;2.60;99.90;;;;;;5130364;27;20057;-75
2021/12/09 02:05:29;;;;;;;9.50;6.70;;;2.60;99.90;;;;;;5137994;27;20046;-74
2021/12/09 02:07:56;;;;;;;10.27;4.60;;;2.50;99.90;;;;;;5139796;27;20058;-75
2021/12/09 02:10:24;;;;;;;7.00;5.32;;;3.20;99.90;;;;;;5138779;27;20051;-75
2021/12/09 02:12:51;;;;;;;8.02;5.30;;;2.50;99.90;;;;;;5134512;27;20069;-75
2021/12/09 02:15:20;;;;;;;6.55;5.88;;;2.50;99.90;;;;;;5137145;27;20142;-75
2021/12/09 02:17:46;;;;;;;6.38;5.68;;;2.50;99.90;;;;;;5141952;27;20050;-75
2021/12/09 02:20:12;;;;;;;11.40;7.32;;;2.50;99.90;;;;;;5126242;27;20856;-75
2021/12/09 02:22:38;;;;;;;9.80;5.55;;;2.60;99.90;;;;;;5138982;27;20119;-75
2021/12/09 02:25:04;;;;;;;10.60;6.45;;;2.50;99.90;;;;;;5143579;27;20047;-75
2021/12/09 02:27:30;;;;;;;9.05;5.78;;;2.50;99.90;;;;;;5122717;27;20058;-75
2021/12/09 02:29:56;;;;;;;10.07;6.00;;;2.60;99.90;;;;;;5138571;27;20047;-75
2021/12/09 02:32:22;;;;;;;7.63;6.45;;;2.60;99.90;;;;;;5122765;27;20158;-75
2021/12/09 02:34:48;;;;;;;12.18;6.53;;;2.50;99.90;;;;;;5128197;27;20039;-75
2021/12/09 02:37:14;;;;;;;12.82;7.10;;;2.50;99.90;;;;;;5140263;27;20054;-75
2021/12/09 02:39:41;;;;;;;10.63;6.00;;;2.50;99.90;;;;;;5141154;27;20129;-76
2021/12/09 02:42:07;;;;;;;13.15;7.03;;;2.50;99.90;;;;;;5146570;27;20038;-75
2021/12/09 02:44:32;;;;;;;12.18;7.07;;;2.50;99.90;;;;;;5133292;27;20103;-75
2021/12/09 02:46:58;;;;;;;9.23;6.00;;;2.50;99.90;;;;;;5140746;27;20126;-75
2021/12/09 02:49:27;;;;;;;15.02;6.50;;;2.50;99.90;;;;;;5125556;27;20042;-75
2021/12/09 02:51:55;;;;;;;7.43;5.80;;;2.50;99.90;;;;;;5122289;27;20038;-76
2021/12/09 02:54:23;;;;;;;21.25;8.18;;;2.50;99.90;;;;;;5133653;27;20102;-75
2021/12/09 02:56:51;;;;;;;9.52;7.72;;;2.50;99.90;;;;;;5118946;27;20050;-77
2021/12/09 02:59:17;;;;;;;10.20;7.10;;;2.40;99.90;;;;;;5112604;27;20818;-75
2021/12/09 03:01:57;;;;;;;10.15;6.28;;;2.50;99.90;;;;;;5120306;27;20062;-76
2021/12/09 03:04:37;;;;;;;11.27;6.63;;;2.40;99.90;;;;;;5142533;27;20057;-75
2021/12/09 03:07:04;;;;;;;12.45;6.55;;;2.40;99.90;;;;;;5118001;27;20051;-75
2021/12/09 03:09:31;;;;;;;11.93;8.10;;;2.40;99.90;;;;;;5138561;27;20561;-74
2021/12/09 03:12:03;;;;;;;11.73;6.38;;;2.40;99.90;;;;;;5138535;27;20066;-75
2021/12/09 03:14:29;;;;;;;10.07;7.05;;;2.40;99.90;;;;;;5137559;27;20095;-75
2021/12/09 03:16:54;;;;;;;12.00;7.28;;;2.30;99.90;;;;;;5138215;27;20051;-75
2021/12/09 03:19:20;;;;;;;10.77;6.30;;;2.40;99.90;;;;;;5138755;27;20038;-75
2021/12/09 03:21:47;;;;;;;8.00;7.07;;;2.50;99.90;;;;;;5141306;27;20034;-75
2021/12/09 03:24:16;;;;;;;14.10;7.70;;;2.40;99.90;;;;;;5138639;27;20034;-75
2021/12/09 03:26:46;;;;;;;15.30;7.25;;;2.40;99.90;;;;;;5138136;27;20154;-75
2021/12/09 03:29:13;;;;;;;11.55;6.85;;;2.40;99.90;;;;;;5119156;27;20104;-73
2021/12/09 03:31:42;;;;;;;10.38;6.90;;;2.40;99.90;;;;;;5122616;27;20054;-75
2021/12/09 03:34:09;;;;;;;16.77;7.90;;;2.40;99.90;;;;;;5138315;27;20132;-75
2021/12/09 03:36:35;;;;;;;10.93;7.85;;;2.40;99.90;;;;;;5138389;27;20101;-75
2021/12/09 03:39:06;;;;;;;7.85;6.15;;;2.30;99.90;;;;;;5119780;27;20095;-75
2021/12/09 03:41:32;;;;;;;11.25;7.13;;;2.30;99.90;;;;;;5119236;27;20478;-75
2021/12/09 03:43:57;;;;;;;9.82;6.38;;;2.30;99.90;;;;;;5137895;27;20102;-75
2021/12/09 03:46:23;;;;;;;11.90;8.20;;;2.30;99.90;;;;;;5137834;27;20035;-75
2021/12/09 03:48:49;;;;;;;8.43;7.32;;;2.30;99.90;;;;;;5138075;27;20123;-75
2021/12/09 03:51:16;;;;;;;8.02;7.05;;;2.30;99.90;;;;;;5133445;27;20045;-75
2021/12/09 03:53:41;;;;;;;10.05;7.50;;;2.30;99.90;;;;;;5137984;27;21051;-75
2021/12/09 03:56:07;;;;;;;9.02;7.22;;;1.80;99.90;;;;;;5139430;27;20086;-75
2021/12/09 03:58:33;;;;;;;10.27;7.78;;;2.30;99.90;;;;;;5118669;27;20038;-75
2021/12/09 04:00:58;;;;;;;9.13;7.18;;;2.30;99.90;;;;;;5137603;27;20066;-75
2021/12/09 04:03:24;;;;;;;11.05;6.45;;;2.30;99.90;;;;;;5119150;27;20053;-75
2021/12/09 04:05:50;;;;;;;10.50;7.88;;;2.20;99.90;;;;;;5137546;27;20079;-75
2021/12/09 04:08:17;;;;;;;11.00;7.25;;;2.20;99.90;;;;;;5137692;27;20117;-75
2021/12/09 04:10:44;;;;;;;11.55;7.18;;;2.20;99.90;;;;;;5137731;27;20359;-75
2021/12/09 04:13:09;;;;;;;10.50;7.50;;;2.20;99.90;;;;;;5137319;27;20722;-75
2021/12/09 04:15:36;;;;;;;12.88;7.20;;;2.20;99.90;;;;;;5118574;27;20058;-75
2021/12/09 04:18:03;;;;;;;8.55;6.95;;;2.20;99.90;;;;;;5116926;27;20047;-75
2021/12/09 04:20:29;;;;;;;9.15;7.07;;;2.20;99.90;;;;;;5137409;27;20426;-76
2021/12/09 04:22:55;;;;;;;11.10;6.85;;;2.20;99.90;;;;;;5118643;27;20500;-75
2021/12/09 04:25:24;;;;;;;11.02;7.10;;;2.20;99.90;;;;;;5137479;27;20039;-75
2021/12/09 04:27:51;;;;;;;10.93;7.25;;;2.10;99.90;;;;;;5121229;27;20046;-75
2021/12/09 04:30:19;;;;;;;12.65;7.97;;;2.10;99.90;;;;;;5139344;27;20054;-76
2021/12/09 04:32:45;;;;;;;9.95;6.20;;;2.10;99.90;;;;;;5140350;27;20047;-75
2021/12/09 04:35:12;;;;;;;13.60;6.88;;;2.00;99.90;;;;;;5134140;27;20752;-75
2021/12/09 04:37:38;;;;;;;12.82;7.10;;;2.00;99.90;;;;;;5138640;27;20054;-76
2021/12/09 04:40:07;;;;;;;10.05;7.30;;;1.90;99.90;;;;;;5122961;27;20271;-76
2021/12/09 04:42:33;;;;;;;9.52;6.85;;;1.80;99.90;;;;;;5141746;27;20062;-75
2021/12/09 04:44:58;;;;;;;9.25;6.18;;;1.80;99.90;;;;;;5122682;27;20215;-75
2021/12/09 04:47:24;;;;;;;10.65;7.00;;;1.70;99.90;;;;;;5140968;27;20112;-74
2021/12/09 04:49:50;;;;;;;9.85;6.63;;;1.70;99.90;;;;;;5141113;27;20081;-75
2021/12/09 04:52:15;;;;;;;9.02;6.30;;;1.70;99.90;;;;;;5140772;27;20754;-75
2021/12/09 04:54:41;;;;;;;9.75;7.53;;;1.80;99.90;;;;;;5141116;27;20066;-75
2021/12/09 04:57:09;;;;;;;8.75;7.28;;;1.70;99.90;;;;;;5142412;27;20043;-75
2021/12/09 04:59:35;;;;;;;9.95;6.10;;;1.60;99.90;;;;;;5122417;27;20046;-74
2021/12/09 05:02:01;;;;;;;7.82;6.22;;;1.60;99.90;;;;;;5141408;27;20537;-75
2021/12/09 05:04:28;;;;;;;10.88;6.82;;;1.60;99.90;;;;;;5123106;27;20053;-75
2021/12/09 05:06:54;;;;;;;8.35;7.25;;;1.50;99.90;;;;;;5140824;27;20195;-75
2021/12/09 05:09:20;;;;;;;7.07;6.22;;;1.40;99.90;;;;;;5140801;27;20158;-74
2021/12/09 05:14:13;;;;;;;12.32;6.88;;;1.30;99.90;;;;;;5122491;27;20051;-75
2021/12/09 05:16:39;;;;;;;10.30;8.40;;;1.30;99.90;;;;;;5140301;27;20051;-75
2021/12/09 05:19:06;;;;;;;13.60;7.63;;;1.20;99.90;;;;;;5140849;27;20038;-75
2021/12/09 05:21:36;;;;;;;10.07;7.47;;;1.20;99.90;;;;;;5140881;27;20039;-75
2021/12/09 05:24:07;;;;;;;11.10;7.40;;;1.20;99.90;;;;;;5138285;27;20034;-75
2021/12/09 05:26:40;;;;;;;13.32;7.93;;;1.20;99.90;;;;;;5122319;27;20050;-75
2021/12/09 05:29:06;;;;;;;12.95;7.50;;;1.10;99.90;;;;;;5115312;27;20575;-74
2021/12/09 05:34:16;;;;;;;9.55;7.60;;;1.10;99.90;;;;;;5140485;27;20452;-74
2021/12/09 05:36:42;;;;;;;10.55;7.72;;;1.10;99.90;;;;;;5140549;27;20064;-73
2021/12/09 05:39:10;;;;;;;13.80;7.53;;;1.20;99.90;;;;;;5140836;27;20043;-73
2021/12/09 05:41:36;;;;;;;12.50;9.10;;;1.20;99.90;;;;;;5121525;27;20054;-73
2021/12/09 05:44:04;;;;;;;15.00;8.55;;;1.10;99.90;;;;;;5140099;27;20130;-73
2021/12/09 05:46:32;;;;;;;9.43;8.02;;;1.20;99.90;;;;;;5139999;27;20072;-73
2021/12/09 05:48:57;;;;;;;11.70;8.73;;;1.20;99.90;;;;;;5140033;27;20034;-74
2021/12/09 05:51:24;;;;;;;15.32;7.95;;;1.30;99.90;;;;;;5138918;27;20049;-73
2021/12/09 05:53:51;;;;;;;15.25;9.18;;;1.30;99.90;;;;;;5121033;27;20047;-73
2021/12/09 05:56:18;;;;;;;8.93;7.93;;;1.30;99.90;;;;;;5140631;27;20061;-72
2021/12/09 05:58:44;;;;;;;13.05;8.63;;;1.30;99.90;;;;;;5139685;27;20103;-73
2021/12/09 06:01:09;;;;;;;13.75;9.02;;;1.30;99.90;;;;;;5120884;27;20042;-72
2021/12/09 06:03:35;;;;;;;13.15;7.93;;;1.30;99.90;;;;;;5140425;27;20505;-73
2021/12/09 06:06:01;;;;;;;12.80;8.48;;;1.40;99.90;;;;;;5139688;27;20099;-74
2021/12/09 06:08:27;;;;;;;14.07;8.45;;;1.40;99.90;;;;;;5140236;27;20035;-73
2021/12/09 06:10:53;;;;;;;12.50;7.68;;;1.50;99.90;;;;;;5140263;27;20883;-73
2021/12/09 06:13:19;;;;;;;12.85;8.55;;;1.40;99.90;;;;;;5120184;27;20039;-73
2021/12/09 06:15:45;;;;;;;11.25;8.30;;;1.50;99.90;;;;;;5139928;27;20123;-74
2021/12/09 06:18:11;;;;;;;15.95;8.88;;;1.50;99.90;;;;;;5139824;27;20158;-73
2021/12/09 06:20:37;;;;;;;14.82;8.15;;;1.50;99.90;;;;;;5120314;27;20123;-74
2021/12/09 06:23:03;;;;;;;13.23;9.93;;;1.50;99.90;;;;;;5140288;27;20050;-73
2021/12/09 06:25:30;;;;;;;14.40;8.05;;;1.50;99.90;;;;;;5141130;27;20070;-74
2021/12/09 06:27:56;;;;;;;11.35;8.23;;;1.50;99.90;;;;;;5141223;27;20070;-74
2021/12/09 06:30:22;;;;;;;10.40;7.90;;;1.50;99.90;;;;;;5141291;27;20458;-74
2021/12/09 06:32:47;;;;;;;15.50;8.43;;;1.40;99.90;;;;;;5141528;27;20047;-73
2021/12/09 06:35:14;;;;;;;15.65;7.82;;;1.40;99.90;;;;;;5122361;27;20096;-73
2021/12/09 06:37:43;;;;;;;11.70;7.93;;;1.30;99.90;;;;;;5141013;27;20641;-73
2021/12/09 06:40:11;;;;;;;9.27;6.95;;;1.20;99.90;;;;;;5140247;27;20047;-74
2021/12/09 06:42:36;;;;;;;12.90;7.22;;;1.10;99.90;;;;;;5140813;27;20047;-73
2021/12/09 06:45:03;;;;;;;9.70;6.57;;;1.10;99.90;;;;;;5141533;27;20118;-73
2021/12/09 06:47:29;;;;;;;10.68;8.20;;;1.00;99.90;;;;;;5140742;27;20043;-73
2021/12/09 06:49:54;;;;;;;11.65;8.23;;;1.00;99.90;;;;;;5141438;27;20087;-72
2021/12/09 06:52:20;;;;;;;11.48;7.10;;;1.00;99.90;;;;;;5141225;27;20039;-73
2021/12/09 06:54:46;;;;;;;12.68;8.40;;;1.00;99.90;;;;;;5140612;27;20043;-73
2021/12/09 06:57:11;;;;;;;8.82;6.82;;;1.00;99.90;;;;;;5150411;27;20587;-73
2021/12/09 06:59:37;;;;;;;13.13;7.55;;;1.00;99.90;;;;;;5129260;27;20124;-73
2021/12/09 07:02:03;;;;;;;18.83;8.60;;;1.00;99.90;;;;;;5137347;27;20450;-73
2021/12/09 07:04:28;;;;;;;14.00;7.90;;;1.00;99.90;;;;;;5133408;27;20047;-74
2021/12/09 07:06:54;;;;;;;11.90;7.75;;;1.00;99.90;;;;;;5133827;27;20054;-73
2021/12/09 07:09:21;;;;;;;12.68;8.45;;;1.00;99.90;;;;;;5139864;27;20039;-73
2021/12/09 07:11:51;;;;;;;11.25;7.28;;;1.00;99.90;;;;;;5122390;27;20862;-73
2021/12/09 07:14:17;;;;;;;9.45;7.65;;;0.90;99.90;;;;;;5121639;27;20054;-73
2021/12/09 07:16:43;;;;;;;12.65;7.82;;;0.90;99.90;;;;;;5121520;27;20045;-72
2021/12/09 07:19:09;;;;;;;13.73;7.60;;;0.90;99.90;;;;;;5122632;27;20047;-73
2021/12/09 07:21:34;;;;;;;11.25;8.32;;;0.90;99.90;;;;;;5140763;27;20097;-74
2021/12/09 07:24:00;;;;;;;9.82;6.80;;;0.90;99.90;;;;;;5139533;27;20449;-73
2021/12/09 07:26:26;;;;;;;7.80;6.47;;;0.90;99.90;;;;;;5122258;27;20083;-73
2021/12/09 07:28:52;;;;;;;15.73;9.90;;;0.90;99.90;;;;;;5140557;27;20074;-74
2021/12/09 07:31:17;;;;;;;10.45;7.43;;;0.90;99.90;;;;;;5121481;27;20047;-73
2021/12/09 07:33:43;;;;;;;9.82;7.07;;;0.90;99.90;;;;;;5141184;27;20069;-73
2021/12/09 07:36:09;;;;;;;13.48;8.45;;;1.00;99.90;;;;;;5140170;27;20082;-74
2021/12/09 07:38:34;;;;;;;9.27;6.50;;;0.90;99.90;;;;;;5140313;27;20057;-73
2021/12/09 07:41:00;;;;;;;13.40;8.20;;;0.90;99.90;;;;;;5140429;27;20039;-74
2021/12/09 07:43:26;;;;;;;10.82;6.72;;;0.90;99.90;;;;;;5137742;27;20154;-74
2021/12/09 07:45:51;;;;;;;10.82;7.72;;;0.90;99.90;;;;;;5137336;27;20039;-74
2021/12/09 07:48:17;;;;;;;13.32;7.07;;;0.90;99.90;;;;;;5137554;27;20752;-73
2021/12/09 07:50:42;;;;;;;10.40;7.78;;;1.00;99.90;;;;;;5136701;27;20046;-73
2021/12/09 07:53:08;;;;;;;18.52;8.00;;;1.00;99.90;;;;;;5136985;27;20039;-74
2021/12/09 07:55:34;;;;;;;11.07;7.13;;;1.00;99.90;;;;;;5119142;27;20122;-73
2021/12/09 07:58:00;;;;;;;12.20;7.72;;;0.90;99.90;;;;;;5138025;27;20047;-73
2021/12/09 08:00:28;;;;;;;12.15;7.75;;;0.90;99.90;;;;;;5136664;27;20637;-73
2021/12/09 08:02:55;;;;;;;9.48;6.78;;;0.90;99.90;;;;;;5118315;27;20053;-74
2021/12/09 08:05:23;;;;;;;18.15;8.98;;;0.90;99.90;;;;;;5137095;27;20097;-73
2021/12/09 08:07:49;;;;;;;11.68;7.80;;;0.90;99.90;;;;;;5137222;27;20504;-73
2021/12/09 08:10:16;;;;;;;16.88;8.02;;;0.90;99.90;;;;;;5127851;27;20043;-74
2021/12/09 08:12:43;;;;;;;20.05;8.00;;;0.90;99.90;;;;;;5130480;27;20053;-75
2021/12/09 08:15:10;;;;;;;11.68;6.85;;;1.00;99.90;;;;;;5123455;27;20120;-75
2021/12/09 08:20:05;;;;;;;14.07;7.57;;;1.10;99.90;;;;;;5135987;27;20050;-75
2021/12/09 08:22:34;;;;;;;19.48;9.60;;;1.10;99.90;;;;;;5136317;27;20035;-75
2021/12/09 08:25:00;;;;;;;10.45;8.15;;;1.10;99.90;;;;;;5137142;27;20095;-75
2021/12/09 08:27:26;;;;;;;11.80;8.20;;;1.10;99.90;;;;;;5118456;27;20047;-77
2021/12/09 08:29:52;;;;;;;16.27;8.43;;;1.20;99.90;;;;;;5124302;27;20490;-77
2021/12/09 08:32:18;;;;;;;10.88;7.63;;;1.30;99.90;;;;;;5136422;27;20046;-77
2021/12/09 08:34:44;;;;;;;14.45;8.15;;;1.30;99.90;;;;;;5136475;27;20043;-77
2021/12/09 08:37:11;;;;;;;12.82;8.30;;;1.40;99.90;;;;;;5136700;27;20092;-77
2021/12/09 08:39:36;;;;;;;10.77;7.32;;;1.40;99.90;;;;;;5136992;27;20054;-77
2021/12/09 08:42:02;;;;;;;13.85;8.43;;;1.40;99.90;;;;;;5136529;27;20043;-77
2021/12/09 08:44:28;;;;;;;14.90;8.00;;;1.50;99.90;;;;;;5118729;27;20770;-77
2021/12/09 08:46:54;;;;;;;9.18;7.88;;;1.50;99.90;;;;;;5118841;27;20053;-77
2021/12/09 08:49:19;;;;;;;9.98;8.25;;;1.60;99.90;;;;;;5115328;27;20118;-78
2021/12/09 08:51:46;;;;;;;10.77;7.55;;;1.60;99.90;;;;;;5137263;27;20047;-78
2021/12/09 08:54:12;;;;;;;15.25;8.43;;;1.70;99.90;;;;;;5136494;27;20030;-78
2021/12/09 08:56:37;;;;;;;12.93;7.22;;;1.70;99.90;;;;;;5142451;27;20133;-77
2021/12/09 08:59:05;;;;;;;16.77;7.72;;;1.80;99.90;;;;;;5138732;27;20674;-78
2021/12/09 09:01:35;;;;;;;16.15;7.75;;;1.80;99.90;;;;;;5136459;27;20051;-77
2021/12/09 09:04:01;;;;;;;11.68;7.47;;;1.90;99.90;;;;;;5135859;27;20046;-77
2021/12/09 09:06:29;;;;;;;10.50;6.03;;;1.90;99.90;;;;;;5134424;27;20794;-78
2021/12/09 09:08:57;;;;;;;13.23;6.88;;;1.90;99.90;;;;;;5116965;27;20043;-77
2021/12/09 09:11:23;;;;;;;10.93;7.53;;;2.00;99.90;;;;;;5117150;27;20199;-77
2021/12/09 09:13:49;;;;;;;13.90;8.05;;;2.00;99.90;;;;;;5134360;27;20234;-76
2021/12/09 09:16:15;;;;;;;9.05;7.88;;;2.10;99.90;;;;;;5134910;27;20632;-77
2021/12/09 09:18:40;;;;;;;8.23;7.15;;;2.10;99.90;;;;;;5127941;27;20686;-77
2021/12/09 09:21:06;;;;;;;11.80;8.68;;;2.10;99.90;;;;;;5113631;27;20571;-78
2021/12/09 09:23:32;;;;;;;12.05;7.18;;;2.20;99.90;;;;;;5134077;27;20050;-77
2021/12/09 09:25:58;;;;;;;10.63;7.47;;;2.20;99.90;;;;;;5135892;27;20050;-77
2021/12/09 09:28:23;;;;;;;9.27;5.95;;;2.30;99.90;;;;;;5138097;27;20066;-77
2021/12/09 09:30:57;;;;;;;14.40;7.40;;;2.30;99.90;;;;;;5120333;27;20054;-76
2021/12/09 09:33:26;;;;;;;10.68;6.50;;;2.30;99.90;;;;;;5140232;27;20050;-76
2021/12/09 09:35:52;;;;;;;12.02;7.13;;;2.40;99.90;;;;;;5139781;27;20126;-77
2021/12/09 09:38:19;;;;;;;17.88;8.07;;;2.50;99.90;;;;;;5140245;27;20034;-76
2021/12/09 09:40:59;;;;;;;13.18;7.15;;;2.50;99.90;;;;;;5140638;27;20130;-75
2021/12/09 09:44:10;;;;;;;11.50;8.23;;;2.50;99.90;;;;;;5138209;27;20066;-75
2021/12/09 09:46:27;;;;;;;8.67;6.30;;;2.60;99.90;;;;;;5114605;27;20062;-75
2021/12/09 09:48:54;;;;;;;12.75;6.93;;;2.70;99.90;;;;;;5137248;27;20034;-74
2021/12/09 09:51:21;;;;;;;9.00;6.85;;;2.70;99.90;;;;;;5117488;27;20055;-75
2021/12/09 09:53:47;;;;;;;11.98;6.75;;;2.70;99.90;;;;;;5135102;27;20038;-74
2021/12/09 09:56:18;;;;;;;11.38;7.30;;;2.80;99.90;;;;;;5137947;27;20058;-74
2021/12/09 09:59:05;;;;;;;9.70;6.50;;;2.90;99.90;;;;;;5118089;27;20376;-75
2021/12/09 10:01:34;;;;;;;11.77;7.28;;;2.90;99.90;;;;;;5135112;27;20061;-74
2021/12/09 10:04:21;;;;;;;8.10;6.22;;;2.90;99.90;;;;;;5120242;27;20055;-75
2021/12/09 10:06:49;;;;;;;5.97;5.10;;;3.00;99.90;;;;;;5127839;27;20703;-74
2021/12/09 10:09:16;;;;;;;14.23;6.30;;;3.00;99.90;;;;;;5116115;27;20803;-74
2021/12/09 10:11:42;;;;;;;7.60;6.25;;;3.10;99.90;;;;;;5138306;27;20725;-74
2021/12/09 10:14:24;;;;;;;7.82;5.78;;;3.10;99.90;;;;;;5126501;27;20134;-75
2021/12/09 10:17:13;;;;;;;10.18;6.63;;;3.20;99.90;;;;;;5119859;27;20051;-74
2021/12/09 10:19:49;;;;;;;8.75;6.45;;;3.20;99.90;;;;;;5137227;27;20126;-74
2021/12/09 10:22:19;;;;;;;11.18;6.93;;;3.30;99.90;;;;;;5125809;27;20127;-75
2021/12/09 10:24:47;;;;;;;8.02;5.80;;;3.30;99.90;;;;;;5137777;27;20039;-73
2021/12/09 10:27:23;;;;;;;16.88;6.60;;;3.40;99.90;;;;;;4779017;27;10000027;-73
2021/12/09 10:29:49;;;;;;;7.43;6.05;;;3.40;99.90;;;;;;5135414;27;20046;-75
2021/12/09 10:32:24;;;;;;;8.30;5.75;;;3.50;99.90;;;;;;5134803;27;20046;-74
2021/12/09 10:34:49;;;;;;;9.30;6.40;;;3.50;99.90;;;;;;5136085;27;20043;-74
2021/12/09 10:37:27;;;;;;;10.00;5.93;;;3.50;99.90;;;;;;5117100;27;20091;-74
2021/12/09 10:39:59;;;;;;;9.02;6.03;;;3.60;99.90;;;;;;5115040;27;20177;-73
2021/12/09 10:42:25;;;;;;;7.82;6.43;;;3.60;99.90;;;;;;5116577;27;20376;-74
2021/12/09 10:44:57;;;;;;;8.30;5.60;;;3.70;99.90;;;;;;5135662;27;20077;-73
2021/12/09 10:47:48;;;;;;;9.97;5.43;;;3.70;99.90;;;;;;5114527;27;20047;-74
2021/12/09 10:50:35;;;;;;;9.80;6.45;;;3.70;99.90;;;;;;5122598;27;20049;-70
2021/12/09 10:53:33;;;;;;;8.88;5.55;;;3.80;99.90;;;;;;5116190;27;20073;-73
2021/12/09 10:55:54;;;;;;;9.27;5.97;;;3.80;99.90;;;;;;5116261;27;20064;-74
2021/12/09 10:58:32;;;;;;;12.23;7.35;;;4.00;99.90;;;;;;5131529;27;20142;-74
2021/12/09 11:01:16;;;;;;;11.05;5.88;;;3.90;99.90;;;;;;5128865;27;20046;-72
2021/12/09 11:03:43;;;;;;;7.93;5.78;;;3.90;99.90;;;;;;5124938;27;20098;-73
2021/12/09 11:06:12;;;;;;;8.15;5.68;;;4.00;99.90;;;;;;5136561;27;20063;-74
2021/12/09 11:08:46;;;;;;;8.82;6.18;;;4.10;99.90;;;;;;5106153;27;20047;-75
2021/12/09 11:11:31;;;;;;;9.70;6.35;;;4.00;99.90;;;;;;5119006;27;20054;-74
2021/12/09 11:14:04;;;;;;;16.85;6.85;;;4.10;99.90;;;;;;5136278;27;20050;-74
2021/12/09 11:16:39;;;;;;;7.13;6.45;;;4.10;99.90;;;;;;5118955;27;20894;-73
2021/12/09 11:19:16;;;;;;;11.25;6.82;;;4.10;99.90;;;;;;5136781;27;20137;-73
2021/12/09 11:21:46;;;;;;;12.55;7.45;;;4.10;99.90;;;;;;5118455;27;20517;-74
2021/12/09 11:24:16;;;;;;;16.13;7.60;;;4.10;99.90;;;;;;5136348;27;20035;-73
2021/12/09 11:29:30;;;;;;;10.43;5.68;;;4.10;99.90;;;;;;5121416;27;20618;-73
2021/12/09 11:32:05;;;;;;;10.52;6.68;;;4.10;99.90;;;;;;5138276;27;20050;-73
2021/12/09 11:34:44;;;;;;;11.07;6.72;;;4.00;99.90;;;;;;5138009;27;20039;-74
2021/12/09 11:37:36;;;;;;;9.52;6.20;;;4.00;99.90;;;;;;5125819;27;20072;-74
2021/12/09 11:40:10;;;;;;;12.07;6.75;;;4.00;99.90;;;;;;5107521;27;20161;-73
2021/12/09 11:42:49;;;;;;;9.82;6.70;;;3.90;99.90;;;;;;5139926;27;20122;-74
2021/12/09 11:45:18;;;;;;;9.98;7.03;;;4.00;99.90;;;;;;5105093;27;20050;-73
2021/12/09 11:47:46;;;;;;;14.75;7.65;;;4.00;99.90;;;;;;5117832;27;20047;-74
2021/12/09 11:50:22;;;;;;;13.93;8.57;;;4.00;99.90;;;;;;5114169;27;20050;-75
2021/12/09 11:52:51;;;;;;;13.80;8.40;;;4.00;99.90;;;;;;5109339;27;20386;-74
2021/12/09 11:55:19;;;;;;;15.40;8.27;;;4.00;99.90;;;;;;5137328;27;20042;-74
2021/12/09 11:57:53;;;;;;;16.42;9.25;;;4.10;99.90;;;;;;5126808;27;20753;-73
2021/12/09 12:07:11;;;;;;;16.65;8.20;;;4.10;99.90;;;;;;5113278;27;20051;-75
2021/12/09 12:12:48;;;;;;;20.43;8.77;;;4.10;99.90;;;;;;5114848;27;20047;-74
2021/12/09 12:24:16;;;;;;;11.65;7.35;;;4.20;99.90;;;;;;5112187;28;20442;-74
2021/12/09 12:40:21;;;;;;;10.73;7.10;;;4.70;99.90;;;;;;5118244;27;20058;-69
2021/12/09 12:43:01;;;;;;;9.43;7.25;;;4.20;99.90;;;;;;5118470;27;20087;-69
2021/12/09 12:51:27;;;;;;;10.85;7.93;;;4.20;99.90;;;;;;5116074;28;20049;-74
2021/12/09 12:54:00;;;;;;;9.63;6.60;;;4.30;99.90;;;;;;5114739;28;20170;-75
2021/12/09 12:56:41;;;;;;;12.55;8.18;;;4.30;99.90;;;;;;5119493;27;20051;-74
2021/12/09 12:59:15;;;;;;;11.43;8.38;;;4.20;99.90;;;;;;5115212;27;20039;-75
2021/12/09 13:02:01;;;;;;;11.40;7.82;;;4.10;99.90;;;;;;5114617;27;20442;-74
2021/12/09 13:04:38;;;;;;;14.07;10.23;;;4.10;99.90;;;;;;5109435;27;20059;-75
2021/12/09 13:08:09;;;;;;;12.48;8.05;;;4.10;99.90;;;;;;5133729;27;20047;-73
2021/12/09 13:13:52;;;;;;;11.60;7.55;;;4.20;99.90;;;;;;5115922;27;20069;-75
2021/12/09 13:19:51;;;;;;;12.60;7.80;;;4.20;99.90;;;;;;5139609;27;20083;-75
2021/12/09 13:22:11;;;;;;;13.27;7.65;;;4.20;99.90;;;;;;5138567;27;20051;-74
2021/12/09 13:27:39;;;;;;;10.88;7.97;;;4.20;99.90;;;;;;5138540;27;20130;-75
2021/12/09 13:33:32;;;;;;;16.33;9.32;;;4.20;99.90;;;;;;5127516;27;20099;-75
2021/12/09 13:36:38;;;;;;;17.33;9.25;;;4.30;99.90;;;;;;5139015;27;20628;-75
2021/12/09 13:39:26;;;;;;;12.50;7.88;;;4.30;99.90;;;;;;5139476;27;20038;-75
2021/12/09 13:50:53;;;;;;;13.32;8.75;;;4.40;99.90;;;;;;5117318;27;20057;-74
2021/12/09 13:56:06;;;;;;;12.00;7.13;;;4.40;99.90;;;;;;5143657;27;20944;-75
2021/12/09 13:58:32;;;;;;;16.73;7.70;;;4.40;99.90;;;;;;5142792;27;20046;-74
2021/12/09 14:00:58;;;;;;;13.32;9.98;;;4.40;99.90;;;;;;5139472;27;20457;-74
2021/12/09 14:03:26;;;;;;;15.75;9.45;;;4.50;99.90;;;;;;5119925;27;20134;-74
2021/12/09 14:06:10;;;;;;;11.25;9.60;;;4.40;99.90;;;;;;5111129;27;20153;-74
2021/12/09 14:08:42;;;;;;;13.23;9.35;;;4.50;99.90;;;;;;5120788;27;20046;-75
2021/12/09 14:11:16;;;;;;;17.15;9.90;;;4.50;99.90;;;;;;5106050;27;20046;-75